Time;durP1;ratioP1;P1;durP2;ratioP2;P2;SDS_P1;SDS_P2;PMS_P1;PMS_P2;Temp;Humidity;BMP_temperature;BMP_pressure;BME280_temperature;BME280_humidity;BME280_pressure;Samples;Min_cycle;Max_cycle;Signal;HPM_P1;HPM_P2
2024/01/13 00:01:36;;;;;;;1.08;1.00;;;3.20;99.90;;;;;;5159200;27;20492;-74
2024/01/13 00:04:01;;;;;;;1.10;1.00;;;2.90;99.90;;;;;;5159323;27;20095;-77
2024/01/13 00:06:27;;;;;;;1.10;1.00;;;2.90;99.90;;;;;;5159046;27;20039;-76
2024/01/13 00:08:52;;;;;;;1.10;1.00;;;2.90;99.90;;;;;;5159077;27;20035;-74
2024/01/13 00:11:18;;;;;;;1.23;1.13;;;2.90;99.90;;;;;;5159150;27;20042;-77
2024/01/13 00:13:43;;;;;;;1.10;1.00;;;2.90;99.90;;;;;;5159227;27;20126;-76
2024/01/13 00:16:09;;;;;;;1.10;1.00;;;2.90;99.90;;;;;;5158906;27;20046;-76
2024/01/13 00:18:34;;;;;;;1.05;1.00;;;2.90;99.90;;;;;;5158589;27;20043;-76
2024/01/13 00:21:00;;;;;;;1.10;1.00;;;2.90;99.90;;;;;;5158923;27;20051;-77
2024/01/13 00:23:26;;;;;;;1.10;1.00;;;2.90;99.90;;;;;;5158667;27;20490;-75
2024/01/13 00:25:51;;;;;;;1.10;1.00;;;2.90;99.90;;;;;;5158422;27;20039;-77
2024/01/13 00:28:17;;;;;;;1.00;1.00;;;2.90;99.90;;;;;;5159023;27;20043;-78
2024/01/13 00:30:42;;;;;;;0.93;0.93;;;2.80;99.90;;;;;;5158602;27;20068;-76
2024/01/13 00:33:08;;;;;;;1.10;1.00;;;2.90;99.90;;;;;;5158517;27;20031;-77
2024/01/13 00:35:33;;;;;;;1.10;1.00;;;2.90;99.90;;;;;;5158615;27;20087;-76
2024/01/13 00:37:59;;;;;;;0.90;0.90;;;2.80;99.90;;;;;;5158463;27;20474;-76
2024/01/13 00:40:24;;;;;;;1.23;1.13;;;2.90;99.90;;;;;;5140202;27;20041;-76
2024/01/13 00:42:50;;;;;;;1.08;0.98;;;2.90;99.90;;;;;;5158054;27;20042;-76
2024/01/13 00:45:16;;;;;;;1.10;1.00;;;2.80;99.90;;;;;;5140202;27;20051;-76
2024/01/13 00:47:42;;;;;;;1.13;1.02;;;2.80;99.90;;;;;;5158259;27;20046;-76
2024/01/13 00:50:08;;;;;;;1.20;1.10;;;2.80;99.90;;;;;;5158283;27;20165;-77
2024/01/13 00:52:34;;;;;;;1.10;1.00;;;2.90;99.90;;;;;;5158085;27;20063;-75
2024/01/13 00:55:00;;;;;;;1.10;1.00;;;2.80;99.90;;;;;;5158636;27;20073;-74
2024/01/13 00:57:25;;;;;;;1.10;1.00;;;2.80;99.90;;;;;;5139663;27;20415;-76
2024/01/13 00:59:51;;;;;;;0.93;0.93;;;2.80;99.90;;;;;;5158085;27;20046;-76
2024/01/13 01:02:17;;;;;;;1.10;1.00;;;2.80;99.90;;;;;;5158057;27;20506;-75
2024/01/13 01:04:42;;;;;;;1.10;1.00;;;2.80;99.90;;;;;;5158010;27;20050;-75
2024/01/13 01:07:08;;;;;;;1.10;1.00;;;2.80;99.90;;;;;;5157873;27;20077;-76
2024/01/13 01:09:33;;;;;;;1.00;0.98;;;2.80;99.90;;;;;;5157857;27;20047;-76
2024/01/13 01:11:59;;;;;;;1.10;1.00;;;2.80;99.90;;;;;;5158093;27;20035;-75
2024/01/13 01:14:24;;;;;;;1.10;1.00;;;3.20;99.90;;;;;;5157754;27;20121;-75
2024/01/13 01:16:50;;;;;;;1.20;1.10;;;2.80;99.90;;;;;;5158033;27;20254;-75
2024/01/13 01:19:16;;;;;;;1.10;1.00;;;2.70;99.90;;;;;;5157685;27;20175;-75
2024/01/13 01:21:41;;;;;;;1.10;1.00;;;3.90;99.90;;;;;;5139244;27;20049;-74
2024/01/13 01:24:07;;;;;;;1.10;1.00;;;2.70;99.90;;;;;;5157544;27;20049;-74
2024/01/13 01:26:32;;;;;;;1.10;1.00;;;2.70;99.90;;;;;;5158068;27;20042;-76
2024/01/13 01:28:58;;;;;;;1.10;1.00;;;2.70;99.90;;;;;;5157841;27;20035;-78
2024/01/13 01:31:23;;;;;;;1.10;1.00;;;2.70;99.90;;;;;;5157340;27;20482;-75
2024/01/13 01:33:49;;;;;;;0.90;0.90;;;2.70;99.90;;;;;;5157343;27;20043;-76
2024/01/13 01:36:14;;;;;;;1.10;1.00;;;2.70;99.90;;;;;;5157523;27;20034;-77
2024/01/13 01:38:40;;;;;;;1.10;1.00;;;2.80;99.90;;;;;;5157239;27;20057;-76
2024/01/13 01:41:07;;;;;;;1.10;1.00;;;2.70;99.90;;;;;;5157164;27;20478;-75
2024/01/13 01:43:32;;;;;;;0.98;0.95;;;2.70;99.90;;;;;;5138955;27;20485;-75
2024/01/13 01:46:00;;;;;;;1.10;1.00;;;2.70;99.90;;;;;;5157254;27;20145;-75
2024/01/13 01:48:33;;;;;;;0.98;0.98;;;2.70;99.90;;;;;;5156894;27;20121;-74
2024/01/13 01:50:59;;;;;;;1.10;1.00;;;2.70;99.90;;;;;;5157155;27;20047;-75
2024/01/13 01:53:25;;;;;;;1.10;1.00;;;2.70;99.90;;;;;;5156997;27;20031;-75
2024/01/13 01:55:51;;;;;;;0.90;0.90;;;2.70;99.90;;;;;;5156495;27;20057;-75
2024/01/13 01:58:18;;;;;;;1.10;1.00;;;2.80;99.90;;;;;;5156937;27;20043;-75
2024/01/13 02:00:44;;;;;;;1.15;1.05;;;2.70;99.90;;;;;;5156831;27;20053;-74
2024/01/13 02:03:11;;;;;;;1.10;1.00;;;2.70;99.90;;;;;;5156972;27;20121;-76
2024/01/13 02:05:37;;;;;;;1.20;1.10;;;2.70;99.90;;;;;;5156687;27;20059;-74
2024/01/13 02:08:04;;;;;;;1.20;1.10;;;2.70;99.90;;;;;;5157190;27;20042;-74
2024/01/13 02:10:30;;;;;;;1.10;1.00;;;2.70;99.90;;;;;;5156597;27;20498;-76
2024/01/13 02:12:55;;;;;;;1.00;0.93;;;3.80;99.90;;;;;;5156888;27;20176;-75
2024/01/13 02:15:21;;;;;;;1.10;1.00;;;3.80;99.90;;;;;;5156782;27;20042;-74
2024/01/13 02:17:47;;;;;;;1.10;1.00;;;2.70;99.90;;;;;;5156610;27;20507;-73
2024/01/13 02:20:12;;;;;;;0.93;0.93;;;2.70;99.90;;;;;;5156447;27;20099;-76
2024/01/13 02:22:38;;;;;;;1.10;1.00;;;2.80;99.90;;;;;;5156121;27;20534;-77
2024/01/13 02:25:04;;;;;;;1.10;1.00;;;2.70;99.90;;;;;;5156408;27;20081;-76
2024/01/13 02:27:30;;;;;;;1.10;1.00;;;2.70;99.90;;;;;;5156241;27;20046;-77
2024/01/13 02:29:56;;;;;;;1.10;1.00;;;2.80;99.90;;;;;;5156556;27;20039;-73
2024/01/13 02:32:24;;;;;;;1.10;1.00;;;2.70;99.90;;;;;;5156109;27;20038;-77
2024/01/13 02:34:50;;;;;;;1.10;1.00;;;2.70;99.90;;;;;;5156267;27;20091;-74
2024/01/13 02:37:15;;;;;;;0.93;0.90;;;2.70;99.90;;;;;;5156121;27;20058;-76
2024/01/13 02:39:41;;;;;;;1.10;1.00;;;2.80;99.90;;;;;;5156152;27;20125;-75
2024/01/13 02:42:06;;;;;;;1.02;0.95;;;3.20;99.90;;;;;;5156056;27;20039;-76
2024/01/13 02:44:32;;;;;;;1.10;1.00;;;2.70;99.90;;;;;;5156046;27;20096;-75
2024/01/13 02:46:58;;;;;;;1.10;1.00;;;2.80;99.90;;;;;;5155987;27;20038;-73
2024/01/13 02:49:23;;;;;;;1.10;1.00;;;2.80;99.90;;;;;;5155795;27;20134;-76
2024/01/13 02:51:49;;;;;;;0.90;0.90;;;2.60;99.90;;;;;;5155797;27;20088;-76
2024/01/13 02:54:14;;;;;;;1.10;1.00;;;2.80;99.90;;;;;;5155839;27;20038;-76
2024/01/13 02:56:40;;;;;;;1.58;1.48;;;2.80;99.90;;;;;;5155811;27;20375;-76
2024/01/13 02:59:06;;;;;;;1.10;1.00;;;2.80;99.90;;;;;;5137972;27;20042;-76
2024/01/13 03:01:33;;;;;;;1.10;1.00;;;2.80;99.90;;;;;;5155607;27;20042;-75
2024/01/13 03:03:59;;;;;;;1.10;1.00;;;2.80;99.90;;;;;;5155820;27;20039;-77
2024/01/13 03:06:25;;;;;;;1.03;1.00;;;2.80;99.90;;;;;;5154765;27;20042;-75
2024/01/13 03:08:52;;;;;;;1.17;1.07;;;2.80;99.90;;;;;;5155620;27;20278;-74
2024/01/13 03:11:18;;;;;;;1.10;1.00;;;2.80;99.90;;;;;;5155620;27;20593;-75
2024/01/13 03:13:44;;;;;;;1.15;1.05;;;2.80;99.90;;;;;;5155497;27;20071;-76
2024/01/13 03:16:10;;;;;;;1.10;1.00;;;4.10;99.90;;;;;;5155576;27;20160;-76
2024/01/13 03:18:36;;;;;;;1.10;1.00;;;3.50;99.90;;;;;;5137317;27;20073;-77
2024/01/13 03:21:03;;;;;;;1.10;1.00;;;2.80;99.90;;;;;;5155391;27;20038;-77
2024/01/13 03:23:29;;;;;;;1.10;1.00;;;2.80;99.90;;;;;;5155522;27;20043;-74
2024/01/13 03:25:55;;;;;;;1.02;1.00;;;2.80;99.90;;;;;;5155356;27;20050;-74
2024/01/13 03:28:21;;;;;;;0.90;0.90;;;2.80;99.90;;;;;;5155392;27;20047;-76
2024/01/13 03:30:47;;;;;;;1.17;1.08;;;2.80;99.90;;;;;;5155413;27;20045;-77
2024/01/13 03:33:12;;;;;;;1.05;0.98;;;2.80;99.90;;;;;;5155297;27;20039;-74
2024/01/13 03:35:38;;;;;;;1.00;1.00;;;2.80;99.90;;;;;;5155385;27;20466;-74
2024/01/13 03:38:04;;;;;;;1.10;1.00;;;2.80;99.90;;;;;;5155316;27;20539;-77
2024/01/13 03:40:29;;;;;;;1.10;1.00;;;2.80;99.90;;;;;;5155253;27;20042;-77
2024/01/13 03:42:55;;;;;;;0.90;0.90;;;2.80;99.90;;;;;;5155327;27;20042;-73
2024/01/13 03:45:20;;;;;;;1.20;1.10;;;3.60;99.90;;;;;;5155279;27;20043;-78
2024/01/13 03:47:46;;;;;;;1.02;1.00;;;2.80;99.90;;;;;;5136732;27;20043;-75
2024/01/13 03:50:12;;;;;;;0.90;0.90;;;2.80;99.90;;;;;;5155675;27;20061;-74
2024/01/13 03:52:37;;;;;;;0.90;0.90;;;2.80;99.90;;;;;;5155615;27;20034;-74
2024/01/13 03:55:03;;;;;;;0.98;0.93;;;2.80;99.90;;;;;;5155210;27;20533;-73
2024/01/13 03:57:29;;;;;;;0.95;0.95;;;2.80;99.90;;;;;;5155138;27;20047;-75
2024/01/13 03:59:54;;;;;;;1.10;1.00;;;2.70;99.90;;;;;;5136997;27;20154;-74
2024/01/13 04:02:20;;;;;;;0.90;0.90;;;2.80;99.90;;;;;;5155070;27;20062;-73
2024/01/13 04:04:46;;;;;;;1.10;1.00;;;2.70;99.90;;;;;;5155057;27;20034;-75
2024/01/13 04:07:11;;;;;;;1.10;1.00;;;2.80;99.90;;;;;;5154795;27;20498;-76
2024/01/13 04:09:39;;;;;;;0.95;0.95;;;2.80;99.90;;;;;;5155333;27;20125;-73
2024/01/13 04:12:05;;;;;;;1.10;1.00;;;3.60;99.90;;;;;;5154865;27;20039;-76
2024/01/13 04:14:31;;;;;;;1.10;1.00;;;2.80;99.90;;;;;;5155164;27;20049;-76
2024/01/13 04:16:57;;;;;;;1.27;1.17;;;2.80;99.90;;;;;;5155071;27;20130;-74
2024/01/13 04:19:22;;;;;;;0.90;0.90;;;2.80;99.90;;;;;;5158918;27;20046;-76
2024/01/13 04:21:48;;;;;;;1.10;1.00;;;2.80;99.90;;;;;;5158828;27;20043;-75
2024/01/13 04:24:13;;;;;;;1.10;1.00;;;2.80;99.90;;;;;;5158775;27;20431;-74
2024/01/13 04:26:40;;;;;;;1.08;1.00;;;3.90;99.90;;;;;;5158694;27;20043;-75
2024/01/13 04:29:05;;;;;;;1.05;0.95;;;2.80;99.90;;;;;;5158916;27;20068;-74
2024/01/13 04:31:31;;;;;;;0.90;0.90;;;2.80;99.90;;;;;;5158539;27;20038;-75
2024/01/13 04:33:57;;;;;;;2.08;1.40;;;2.80;99.90;;;;;;5158639;27;20470;-76
2024/01/13 04:36:22;;;;;;;1.00;0.93;;;2.80;99.90;;;;;;5158475;27;20045;-75
2024/01/13 04:38:49;;;;;;;1.10;1.00;;;2.80;99.90;;;;;;5158445;27;20077;-73
2024/01/13 04:41:15;;;;;;;1.00;1.00;;;2.80;99.90;;;;;;5158391;27;20087;-73
2024/01/13 04:43:41;;;;;;;0.90;0.90;;;2.80;99.90;;;;;;5158359;27;20043;-75
2024/01/13 04:46:07;;;;;;;1.10;1.00;;;2.80;99.90;;;;;;5158312;27;20064;-74
2024/01/13 04:48:33;;;;;;;1.10;1.00;;;2.80;99.90;;;;;;5158167;27;20389;-77
2024/01/13 04:50:59;;;;;;;1.95;1.75;;;2.80;99.90;;;;;;5158307;27;20046;-76
2024/01/13 04:53:24;;;;;;;0.90;0.90;;;2.80;99.90;;;;;;5158275;27;20397;-74
2024/01/13 04:55:51;;;;;;;1.08;1.00;;;2.80;99.90;;;;;;5158021;27;20057;-74
2024/01/13 04:58:17;;;;;;;0.95;0.95;;;2.80;99.90;;;;;;5157796;27;20087;-73
2024/01/13 05:00:42;;;;;;;1.10;1.00;;;2.80;99.90;;;;;;5157984;27;20039;-76
2024/01/13 05:03:08;;;;;;;0.98;0.90;;;2.80;99.90;;;;;;5158024;27;20039;-76
2024/01/13 05:05:34;;;;;;;1.10;1.00;;;2.80;99.90;;;;;;5157983;27;20042;-74
2024/01/13 05:08:00;;;;;;;1.00;1.00;;;2.80;99.90;;;;;;5157970;27;20043;-74
2024/01/13 05:10:26;;;;;;;0.90;0.90;;;2.70;99.90;;;;;;5139770;27;20046;-77
2024/01/13 05:12:51;;;;;;;0.98;0.98;;;2.70;99.90;;;;;;5157595;27;20162;-74
2024/01/13 05:15:17;;;;;;;1.48;1.38;;;2.70;99.90;;;;;;5157846;27;20046;-77
2024/01/13 05:17:42;;;;;;;0.90;0.90;;;2.70;99.90;;;;;;5157654;27;20042;-75
2024/01/13 05:20:09;;;;;;;0.90;0.90;;;2.70;99.90;;;;;;5157323;27;20538;-75
2024/01/13 05:22:34;;;;;;;0.90;0.90;;;2.70;99.90;;;;;;5157240;27;20375;-76
2024/01/13 05:25:00;;;;;;;1.10;1.00;;;2.70;99.90;;;;;;5158048;27;20061;-76
2024/01/13 05:27:26;;;;;;;0.90;0.90;;;2.70;99.90;;;;;;5157928;27;20500;-75
2024/01/13 05:29:52;;;;;;;0.90;0.90;;;2.70;99.90;;;;;;5156464;27;20057;-76
2024/01/13 05:32:18;;;;;;;1.13;1.02;;;2.70;99.90;;;;;;5157491;27;20042;-74
2024/01/13 05:34:43;;;;;;;0.90;0.90;;;2.80;99.90;;;;;;5157466;27;20049;-75
2024/01/13 05:37:09;;;;;;;1.00;1.00;;;2.70;99.90;;;;;;5138901;27;20091;-76
2024/01/13 05:39:35;;;;;;;1.10;1.00;;;2.70;99.90;;;;;;5157334;27;20034;-77
2024/01/13 05:42:01;;;;;;;1.00;1.00;;;2.80;99.90;;;;;;5157281;27;20374;-76
2024/01/13 05:44:27;;;;;;;1.10;1.00;;;2.80;99.90;;;;;;5157249;27;20092;-74
2024/01/13 05:46:52;;;;;;;1.02;1.00;;;2.80;99.90;;;;;;5157311;27;20081;-75
2024/01/13 05:49:18;;;;;;;0.90;0.90;;;2.80;99.90;;;;;;5157090;27;20512;-76
2024/01/13 05:51:43;;;;;;;0.95;0.95;;;2.70;99.90;;;;;;5156965;27;20393;-75
2024/01/13 05:54:09;;;;;;;0.93;0.93;;;2.70;99.90;;;;;;5157453;27;20034;-75
2024/01/13 05:56:36;;;;;;;1.10;1.00;;;2.80;99.90;;;;;;5157027;27;20541;-78
2024/01/13 05:59:01;;;;;;;0.90;0.90;;;2.70;99.90;;;;;;5156864;27;20042;-73
2024/01/13 06:01:27;;;;;;;1.05;1.00;;;2.70;99.90;;;;;;5157070;27;20118;-74
2024/01/13 06:03:55;;;;;;;0.90;0.90;;;2.70;99.90;;;;;;5156902;27;20470;-82
2024/01/13 06:06:21;;;;;;;0.90;0.90;;;2.70;99.90;;;;;;5156691;27;20404;-79
2024/01/13 06:08:47;;;;;;;0.90;0.90;;;2.70;99.90;;;;;;5156605;27;20039;-78
2024/01/13 06:11:12;;;;;;;0.80;0.80;;;2.70;99.90;;;;;;5156560;27;20049;-78
2024/01/13 06:13:39;;;;;;;0.90;0.90;;;2.70;99.90;;;;;;5137975;27;20043;-73
2024/01/13 06:16:05;;;;;;;0.93;0.90;;;2.70;99.90;;;;;;5156481;27;20042;-79
2024/01/13 06:18:30;;;;;;;0.90;0.90;;;2.70;99.90;;;;;;5156330;27;20537;-73
2024/01/13 06:20:56;;;;;;;0.90;0.90;;;2.70;99.90;;;;;;5156100;27;20039;-74
2024/01/13 06:23:21;;;;;;;0.90;0.90;;;2.70;99.90;;;;;;5156460;27;20039;-76
2024/01/13 06:25:47;;;;;;;0.90;0.90;;;2.70;99.90;;;;;;5156659;27;20162;-69
2024/01/13 06:28:13;;;;;;;1.00;1.00;;;2.70;99.90;;;;;;5156370;27;20042;-74
2024/01/13 06:30:38;;;;;;;1.10;1.00;;;2.70;99.90;;;;;;5156357;27;20034;-73
2024/01/13 06:33:04;;;;;;;1.10;1.00;;;2.70;99.90;;;;;;5156311;27;20045;-78
2024/01/13 06:35:30;;;;;;;1.10;1.00;;;2.70;99.90;;;;;;5156187;27;20049;-73
2024/01/13 06:37:56;;;;;;;0.82;0.82;;;2.70;99.90;;;;;;5156220;27;20046;-80
2024/01/13 06:40:21;;;;;;;0.93;0.93;;;2.70;99.90;;;;;;5155933;27;20083;-72
2024/01/13 06:42:47;;;;;;;0.90;0.90;;;2.70;99.90;;;;;;5137677;27;20038;-78
2024/01/13 06:45:12;;;;;;;0.82;0.82;;;2.70;99.90;;;;;;5156070;27;20082;-77
2024/01/13 06:47:38;;;;;;;0.90;0.90;;;2.70;99.90;;;;;;5155896;27;20454;-73
2024/01/13 06:50:04;;;;;;;1.10;1.00;;;2.70;99.90;;;;;;5156286;27;20059;-71
2024/01/13 06:52:30;;;;;;;0.90;0.90;;;2.70;99.90;;;;;;5155520;27;20071;-73
2024/01/13 06:54:55;;;;;;;0.90;0.90;;;2.70;99.90;;;;;;5155487;27;20072;-72
2024/01/13 06:57:22;;;;;;;0.90;0.90;;;2.60;99.90;;;;;;5154417;27;20062;-70
2024/01/13 06:59:47;;;;;;;0.90;0.90;;;2.60;99.90;;;;;;5155472;27;20487;-72
2024/01/13 07:02:14;;;;;;;1.48;1.38;;;2.60;99.90;;;;;;5155921;27;20091;-71
2024/01/13 07:04:40;;;;;;;0.90;0.90;;;2.60;99.90;;;;;;5155666;27;20046;-73
2024/01/13 07:07:06;;;;;;;0.98;0.90;;;2.60;99.90;;;;;;5155696;27;20043;-70
2024/01/13 07:09:32;;;;;;;0.88;0.88;;;2.60;99.90;;;;;;5138025;27;20039;-73
2024/01/13 07:11:57;;;;;;;1.00;1.00;;;2.60;99.90;;;;;;5155623;27;20065;-74
2024/01/13 07:14:23;;;;;;;1.10;1.10;;;2.60;99.90;;;;;;5155580;27;20043;-71
2024/01/13 07:16:49;;;;;;;3.92;1.55;;;3.40;99.90;;;;;;5155547;27;20046;-72
2024/01/13 07:19:15;;;;;;;1.25;1.15;;;2.60;99.90;;;;;;5155528;27;20119;-70
2024/01/13 07:21:41;;;;;;;0.90;0.90;;;2.60;99.90;;;;;;5155489;27;20150;-72
2024/01/13 07:24:08;;;;;;;1.03;1.00;;;2.60;99.90;;;;;;5155518;27;20038;-69
2024/01/13 07:26:38;;;;;;;1.63;1.52;;;2.60;99.90;;;;;;5155512;27;20096;-71
2024/01/13 07:29:03;;;;;;;0.90;0.90;;;2.60;99.90;;;;;;5155250;27;20537;-70
2024/01/13 07:31:29;;;;;;;0.90;0.90;;;2.60;99.90;;;;;;5155370;27;20125;-73
2024/01/13 07:33:56;;;;;;;1.00;1.00;;;2.70;99.90;;;;;;5155237;27;20179;-69
2024/01/13 07:36:21;;;;;;;0.98;0.90;;;2.60;99.90;;;;;;5137400;27;20059;-70
2024/01/13 07:38:47;;;;;;;1.10;1.00;;;2.70;99.90;;;;;;5155426;27;20045;-70
2024/01/13 07:41:12;;;;;;;0.90;0.90;;;2.70;99.90;;;;;;5155279;27;20049;-73
2024/01/13 07:43:38;;;;;;;0.90;0.90;;;2.70;99.90;;;;;;5155261;27;20043;-70
2024/01/13 07:46:04;;;;;;;1.27;1.23;;;2.60;99.90;;;;;;5155384;27;20051;-70
2024/01/13 07:48:29;;;;;;;1.05;1.00;;;2.70;99.90;;;;;;5155116;27;20125;-73
2024/01/13 07:50:55;;;;;;;1.00;1.00;;;2.70;99.90;;;;;;5155245;27;20126;-70
2024/01/13 07:53:20;;;;;;;0.90;0.90;;;2.70;99.90;;;;;;5157675;27;20431;-73
2024/01/13 07:55:47;;;;;;;1.42;1.33;;;2.70;99.90;;;;;;5159298;27;20047;-72
2024/01/13 07:58:12;;;;;;;0.90;0.90;;;2.70;99.90;;;;;;5159328;27;20477;-71
2024/01/13 08:00:38;;;;;;;0.90;0.90;;;2.70;99.90;;;;;;5159190;27;20125;-70
2024/01/13 08:03:04;;;;;;;0.90;0.90;;;2.80;99.90;;;;;;5159203;27;20043;-70
2024/01/13 08:05:31;;;;;;;1.10;1.00;;;2.80;99.90;;;;;;5159675;27;20373;-72
2024/01/13 08:07:57;;;;;;;1.00;1.00;;;2.80;99.90;;;;;;5159262;27;20512;-71
2024/01/13 08:10:23;;;;;;;1.10;1.00;;;2.80;99.90;;;;;;5158824;27;20477;-72
2024/01/13 08:12:48;;;;;;;0.90;0.90;;;2.80;99.90;;;;;;5158958;27;20061;-72
2024/01/13 08:15:14;;;;;;;0.90;0.90;;;2.80;99.90;;;;;;5159151;27;20493;-72
2024/01/13 08:17:40;;;;;;;0.93;0.93;;;2.80;99.90;;;;;;5158753;27;20375;-70
2024/01/13 08:20:06;;;;;;;0.95;0.95;;;2.80;99.90;;;;;;5158811;27;20042;-72
2024/01/13 08:22:32;;;;;;;1.10;1.00;;;2.80;99.90;;;;;;5158864;27;20367;-70
2024/01/13 08:24:58;;;;;;;1.10;1.00;;;2.90;99.90;;;;;;5159363;27;20045;-71
2024/01/13 08:27:25;;;;;;;1.00;1.00;;;2.90;99.90;;;;;;5158718;27;20046;-70
2024/01/13 08:29:50;;;;;;;1.52;1.42;;;2.90;99.90;;;;;;5158745;27;20057;-71
2024/01/13 08:32:16;;;;;;;1.10;1.00;;;2.90;99.90;;;;;;5158594;27;20490;-72
2024/01/13 08:34:41;;;;;;;1.00;0.98;;;2.90;99.90;;;;;;5158515;27;20050;-71
2024/01/13 08:37:07;;;;;;;0.90;0.90;;;2.90;99.90;;;;;;5158574;27;20049;-71
2024/01/13 08:39:33;;;;;;;1.33;1.23;;;2.90;99.90;;;;;;5158571;27;20489;-71
2024/01/13 08:41:59;;;;;;;1.45;1.35;;;2.90;99.90;;;;;;5158477;27;20121;-69
2024/01/13 08:44:25;;;;;;;1.10;1.00;;;2.90;99.90;;;;;;5158413;27;20121;-71
2024/01/13 08:46:50;;;;;;;1.15;1.05;;;2.90;99.90;;;;;;5158396;27;20047;-70
2024/01/13 08:49:16;;;;;;;1.20;1.10;;;2.90;99.90;;;;;;5157936;27;20057;-71
2024/01/13 08:51:41;;;;;;;1.40;1.30;;;2.90;99.90;;;;;;5158223;27;20049;-70
2024/01/13 08:54:07;;;;;;;1.15;1.05;;;2.90;99.90;;;;;;5158632;27;20078;-70
2024/01/13 08:56:34;;;;;;;1.10;1.00;;;3.00;99.90;;;;;;5139783;27;20535;-71
2024/01/13 08:59:01;;;;;;;1.10;1.00;;;2.90;99.90;;;;;;5158098;27;20050;-71
2024/01/13 09:01:27;;;;;;;1.15;1.05;;;3.00;99.90;;;;;;5157813;27;20482;-70
2024/01/13 09:03:52;;;;;;;1.20;1.10;;;3.00;99.90;;;;;;5156624;27;20091;-72
2024/01/13 09:06:18;;;;;;;1.20;1.10;;;3.00;99.90;;;;;;5158026;27;20039;-71
2024/01/13 09:08:43;;;;;;;1.20;1.10;;;3.00;99.90;;;;;;5158348;27;20059;-72
2024/01/13 09:11:09;;;;;;;1.10;1.00;;;3.00;99.90;;;;;;5157816;27;20042;-73
2024/01/13 09:13:35;;;;;;;1.20;1.10;;;3.00;99.90;;;;;;5157805;27;20078;-72
2024/01/13 09:16:00;;;;;;;1.20;1.10;;;3.00;99.90;;;;;;5157815;27;20035;-71
2024/01/13 09:18:26;;;;;;;1.42;1.33;;;3.00;99.90;;;;;;5157752;27;20593;-71
2024/01/13 09:20:52;;;;;;;1.20;1.10;;;3.00;99.90;;;;;;5157415;27;20085;-72
2024/01/13 09:23:17;;;;;;;1.10;1.00;;;3.60;99.90;;;;;;5157669;27;20088;-72
2024/01/13 09:25:43;;;;;;;1.50;1.30;;;3.10;99.90;;;;;;5157687;27;20042;-73
2024/01/13 09:28:09;;;;;;;1.20;1.10;;;3.10;99.90;;;;;;5157554;27;20479;-70
2024/01/13 09:30:36;;;;;;;1.55;1.45;;;3.10;99.90;;;;;;5157524;27;20054;-72
2024/01/13 09:33:01;;;;;;;1.20;1.10;;;3.10;99.90;;;;;;5157417;27;20039;-72
2024/01/13 09:35:31;;;;;;;1.20;1.10;;;3.10;99.90;;;;;;5157486;27;20485;-73
2024/01/13 09:37:57;;;;;;;1.30;1.20;;;3.10;99.90;;;;;;5157121;27;20482;-72
2024/01/13 09:40:23;;;;;;;1.23;1.13;;;3.10;99.90;;;;;;5157300;27;20039;-71
2024/01/13 09:42:51;;;;;;;1.20;1.10;;;3.10;99.90;;;;;;5157277;27;20098;-72
2024/01/13 09:45:18;;;;;;;1.20;1.10;;;3.10;99.90;;;;;;5157221;27;20061;-71
2024/01/13 09:47:45;;;;;;;1.20;1.10;;;3.10;99.90;;;;;;5157140;27;20124;-71
2024/01/13 09:50:11;;;;;;;1.25;1.15;;;3.10;99.90;;;;;;5157300;27;20054;-70
2024/01/13 09:52:39;;;;;;;1.30;1.20;;;3.10;99.90;;;;;;5156963;27;20043;-71
2024/01/13 09:55:07;;;;;;;3.00;2.70;;;3.10;99.90;;;;;;5156989;27;20049;-71
2024/01/13 09:57:33;;;;;;;1.30;1.20;;;3.10;99.90;;;;;;5157149;27;20046;-72
2024/01/13 09:59:59;;;;;;;2.23;1.93;;;3.10;99.90;;;;;;5138854;27;20035;-70
2024/01/13 10:02:25;;;;;;;1.85;1.75;;;4.20;99.90;;;;;;5156810;27;20466;-73
2024/01/13 10:04:51;;;;;;;1.63;1.52;;;3.10;99.90;;;;;;5157265;27;20042;-70
2024/01/13 10:07:16;;;;;;;1.33;1.23;;;3.50;99.90;;;;;;5156810;27;20041;-71
2024/01/13 10:09:43;;;;;;;1.40;1.30;;;3.20;99.90;;;;;;5156770;27;20589;-70
2024/01/13 10:12:09;;;;;;;;;;;3.20;99.90;;;;;;5157011;27;20031;-73
2024/01/13 10:14:38;;;;;;;1.20;1.10;;;3.20;99.90;;;;;;5156505;27;19971;-72
2024/01/13 10:17:05;;;;;;;1.20;1.10;;;3.20;99.90;;;;;;5156282;27;20064;-73
2024/01/13 10:19:38;;;;;;;2.38;1.20;;;3.20;99.90;;;;;;5156989;27;20043;-72
2024/01/13 10:22:05;;;;;;;1.30;1.20;;;3.20;99.90;;;;;;5156531;27;20084;-71
2024/01/13 10:24:31;;;;;;;3.70;2.97;;;3.20;99.90;;;;;;5156389;27;20379;-72
2024/01/13 10:26:56;;;;;;;1.60;1.50;;;3.20;99.90;;;;;;5156410;27;20041;-74
2024/01/13 10:29:23;;;;;;;2.85;1.65;;;3.20;99.90;;;;;;5156399;27;20031;-70
2024/01/13 10:31:53;;;;;;;3.63;2.58;;;3.20;99.90;;;;;;5156182;27;20046;-72
2024/01/13 10:34:19;;;;;;;1.90;1.80;;;3.20;99.90;;;;;;5155980;27;20073;-73
2024/01/13 10:36:45;;;;;;;1.25;1.15;;;3.20;99.90;;;;;;5156159;27;20075;-70
2024/01/13 10:39:10;;;;;;;1.30;1.20;;;3.20;99.90;;;;;;5156166;27;20043;-71
2024/01/13 10:41:41;;;;;;;2.50;2.30;;;3.30;99.90;;;;;;5156129;27;20055;-72
2024/01/13 10:44:09;;;;;;;2.95;2.75;;;3.30;99.90;;;;;;5156015;27;20081;-71
2024/01/13 10:46:37;;;;;;;2.38;2.17;;;3.30;99.90;;;;;;5137742;27;20133;-73
2024/01/13 10:49:13;;;;;;;1.50;1.40;;;3.30;99.90;;;;;;5155895;27;20432;-70
2024/01/13 10:51:43;;;;;;;2.97;2.28;;;3.30;99.90;;;;;;5156013;27;20489;-71
2024/01/13 10:54:12;;;;;;;1.35;1.25;;;3.30;99.90;;;;;;5155886;27;20066;-72
2024/01/13 10:56:39;;;;;;;1.95;1.77;;;3.80;99.90;;;;;;5155756;27;20545;-73
2024/01/13 10:59:04;;;;;;;1.20;1.10;;;3.30;99.90;;;;;;5155730;27;20516;-72
2024/01/13 11:01:32;;;;;;;1.27;1.17;;;3.30;99.90;;;;;;5155729;27;20046;-72
2024/01/13 11:03:59;;;;;;;2.10;1.85;;;3.30;99.90;;;;;;5155741;27;20035;-73
2024/01/13 11:06:25;;;;;;;1.20;1.10;;;3.30;99.90;;;;;;5155713;27;20042;-73
2024/01/13 11:08:52;;;;;;;1.70;1.60;;;3.30;99.90;;;;;;5155693;27;20057;-71
2024/01/13 11:11:31;;;;;;;2.38;2.17;;;3.30;99.90;;;;;;5155651;27;20046;-71
2024/01/13 11:14:05;;;;;;;1.10;1.00;;;3.30;99.90;;;;;;5155590;27;20466;-70
2024/01/13 11:16:34;;;;;;;1.52;1.42;;;3.30;99.90;;;;;;5155605;27;20064;-70
2024/01/13 11:19:00;;;;;;;1.20;1.10;;;3.30;99.90;;;;;;5155568;27;20050;-72
2024/01/13 11:21:30;;;;;;;1.98;1.88;;;3.40;99.90;;;;;;5155525;27;20046;-71
2024/01/13 11:24:07;;;;;;;1.40;1.30;;;3.40;99.90;;;;;;5155470;27;20051;-70
2024/01/13 11:26:43;;;;;;;1.20;1.10;;;3.40;99.90;;;;;;5155496;27;20038;-70
2024/01/13 11:29:19;;;;;;;2.33;2.22;;;4.40;99.90;;;;;;5155244;27;20070;-72
2024/01/13 11:31:45;;;;;;;2.33;1.90;;;3.40;99.90;;;;;;5155299;27;20039;-72
2024/01/13 11:34:13;;;;;;;1.88;1.48;;;3.70;99.90;;;;;;5155323;27;20124;-71
2024/01/13 11:36:41;;;;;;;2.75;2.55;;;3.40;99.90;;;;;;5155290;27;20409;-74
2024/01/13 11:39:09;;;;;;;1.77;1.67;;;3.40;99.90;;;;;;5155303;27;20060;-73
2024/01/13 11:41:43;;;;;;;1.30;1.20;;;3.40;99.90;;;;;;5155510;27;20050;-73
2024/01/13 11:44:10;;;;;;;1.10;1.00;;;3.40;99.90;;;;;;5155466;27;20042;-70
2024/01/13 11:46:38;;;;;;;;;;;3.40;99.90;;;;;;5155616;27;20351;-71
2024/01/13 11:49:04;;;;;;;1.63;1.52;;;3.40;99.90;;;;;;5154844;27;19926;-72
2024/01/13 11:51:58;;;;;;;1.92;1.83;;;3.40;99.90;;;;;;5155181;27;20050;-71
2024/01/13 11:54:28;;;;;;;1.58;1.48;;;3.40;99.90;;;;;;5155220;27;20042;-70
2024/01/13 11:56:56;;;;;;;3.00;2.13;;;3.40;99.90;;;;;;5136630;27;20046;-70
2024/01/13 11:59:21;;;;;;;1.60;1.50;;;3.40;99.90;;;;;;5136523;27;20416;-71
2024/01/13 12:01:48;;;;;;;1.67;1.58;;;4.40;99.90;;;;;;5155042;27;20046;-73
2024/01/13 12:04:15;;;;;;;4.15;3.80;;;3.50;99.90;;;;;;5155100;27;20051;-71
2024/01/13 12:06:42;;;;;;;2.08;1.98;;;3.50;99.90;;;;;;5155074;27;20077;-71
2024/01/13 12:09:08;;;;;;;3.08;2.88;;;3.50;99.90;;;;;;5155073;27;20046;-70
2024/01/13 12:11:34;;;;;;;1.37;1.27;;;3.50;99.90;;;;;;5155024;27;20121;-71
2024/01/13 12:14:06;;;;;;;1.45;1.35;;;3.50;99.90;;;;;;5154897;27;20426;-71
2024/01/13 12:16:32;;;;;;;2.35;2.17;;;3.50;99.90;;;;;;5155460;27;20130;-72
2024/01/13 12:18:58;;;;;;;1.35;1.25;;;3.50;99.90;;;;;;5154921;27;20478;-71
2024/01/13 12:21:24;;;;;;;2.25;1.92;;;3.50;99.90;;;;;;5154988;27;20044;-71
2024/01/13 12:23:50;;;;;;;1.65;1.55;;;3.50;99.90;;;;;;5154976;27;20495;-73
2024/01/13 12:26:16;;;;;;;1.45;1.35;;;3.50;99.90;;;;;;5155081;27;20045;-72
2024/01/13 12:28:42;;;;;;;1.20;1.10;;;3.50;99.90;;;;;;5136588;27;20077;-71
2024/01/13 12:31:08;;;;;;;1.20;1.10;;;3.50;99.90;;;;;;5154868;27;20039;-73
2024/01/13 12:33:34;;;;;;;1.13;1.03;;;3.50;99.90;;;;;;5154734;27;20146;-72
2024/01/13 12:36:04;;;;;;;1.45;1.35;;;3.60;99.90;;;;;;5155145;27;20076;-71
2024/01/13 12:38:30;;;;;;;2.85;2.28;;;3.60;99.90;;;;;;5155719;27;20047;-71
2024/01/13 12:40:57;;;;;;;2.53;2.33;;;3.60;99.90;;;;;;5158537;27;20045;-71
2024/01/13 12:43:23;;;;;;;;;;;3.60;99.90;;;;;;5158836;27;20086;-71
2024/01/13 12:45:50;;;;;;;1.40;1.30;;;3.60;99.90;;;;;;5158351;27;19926;-71
2024/01/13 12:48:16;;;;;;;1.17;1.08;;;3.60;99.90;;;;;;5158264;27;20434;-72
2024/01/13 12:50:42;;;;;;;3.33;2.47;;;3.60;99.90;;;;;;5158296;27;20057;-71
2024/01/13 12:53:08;;;;;;;1.20;1.10;;;3.70;99.90;;;;;;5158245;27;20037;-70